Time;durP1;ratioP1;P1;durP2;ratioP2;P2;SDS_P1;SDS_P2;PMS_P1;PMS_P2;Temp;Humidity;BMP_temperature;BMP_pressure;BME280_temperature;BME280_humidity;BME280_pressure;Samples;Min_cycle;Max_cycle;Signal;HPM_P1;HPM_P2
2023/04/10 00:07:42;;;;;;;105.90;53.70;;;;;;;6.66;85.93;99404.31;435370;1254;99248;-39
2023/04/10 00:17:53;;;;;;;109.80;57.00;;;;;;;6.59;86.14;99396.95;435141;1256;108416;-40
2023/04/10 00:28:01;;;;;;;96.40;53.10;;;;;;;6.67;86.40;99391.52;435445;1253;99243;-41
2023/04/10 00:38:08;;;;;;;98.00;53.10;;;;;;;6.82;86.73;99387.95;435333;1256;111852;-39
2023/04/10 00:48:16;;;;;;;113.30;56.50;;;;;;;6.85;86.44;99376.70;435222;1251;107485;-41
2023/04/10 00:58:25;;;;;;;135.00;67.60;;;;;;;6.73;86.56;99378.71;435403;1251;99781;-40
2023/04/10 01:08:30;;;;;;;145.10;66.50;;;;;;;6.58;86.52;99377.30;435340;1253;105801;-41
2023/04/10 01:18:44;;;;;;;108.00;57.40;;;;;;;6.44;86.66;99384.51;436741;1251;99231;-41
2023/04/10 01:28:59;;;;;;;94.60;51.40;;;;;;;6.41;86.57;99385.77;436421;1247;110617;-42
2023/04/10 01:39:08;;;;;;;81.90;45.50;;;;;;;6.40;86.60;99391.85;436329;1253;107502;-40
2023/04/10 01:49:16;;;;;;;81.30;45.50;;;;;;;6.35;86.84;99384.27;436456;1247;99314;-53
2023/04/10 01:59:23;;;;;;;81.80;43.80;;;;;;;6.32;86.83;99379.17;436410;1247;107413;-41
2023/04/10 02:09:28;;;;;;;84.60;48.50;;;;;;;6.42;87.31;99376.23;436472;1251;99232;-41
2023/04/10 02:19:37;;;;;;;79.70;44.90;;;;;;;6.43;87.12;99376.25;436388;1247;110778;-39
2023/04/10 02:29:44;;;;;;;68.70;40.10;;;;;;;6.37;87.25;99374.71;436418;1247;106948;-41
2023/04/10 02:39:53;;;;;;;71.20;40.60;;;;;;;6.33;87.33;99377.33;436316;1253;99191;-40
2023/04/10 02:50:00;;;;;;;64.40;40.00;;;;;;;6.31;87.59;99378.95;436448;1251;109218;-41
2023/04/10 03:00:09;;;;;;;71.40;40.10;;;;;;;6.33;87.72;99387.10;436232;1253;98859;-40
2023/04/10 03:10:15;;;;;;;72.20;38.60;;;;;;;6.36;87.85;99391.50;436498;1251;109617;-40
2023/04/10 03:20:21;;;;;;;68.30;39.80;;;;;;;6.32;88.21;99390.81;436315;1253;106880;-41
2023/04/10 03:30:29;;;;;;;71.60;40.50;;;;;;;6.34;88.38;99396.25;436410;1247;99241;-43
2023/04/10 03:40:36;;;;;;;80.30;42.70;;;;;;;6.43;88.48;99401.35;436536;1253;107909;-42
2023/04/10 03:50:44;;;;;;;80.20;43.40;;;;;;;6.48;88.58;99400.39;435982;1251;490453;-41
2023/04/10 04:00:51;;;;;;;77.70;43.40;;;;;;;6.61;88.78;99388.73;436365;1251;111589;-41
2023/04/10 04:10:58;;;;;;;82.10;43.50;;;;;;;6.74;88.84;99395.39;436251;1253;109882;-41
2023/04/10 04:21:04;;;;;;;75.90;42.20;;;;;;;6.75;88.74;99392.84;436314;1253;99295;-40
2023/04/10 04:31:11;;;;;;;89.20;45.30;;;;;;;6.74;88.80;99404.85;436271;1247;108091;-41
2023/04/10 04:41:18;;;;;;;87.30;47.50;;;;;;;6.73;88.74;99414.79;436030;1251;99842;-41
2023/04/10 05:01:33;;;;;;;78.40;45.30;;;;;;;6.82;88.96;99423.36;436120;1253;107127;-42
2023/04/10 05:11:39;;;;;;;84.90;44.40;;;;;;;6.83;89.11;99435.47;436306;1251;99228;-39
2023/04/10 05:21:46;;;;;;;78.00;43.10;;;;;;;6.82;89.26;99440.79;436388;1254;107435;-41
2023/04/10 05:31:54;;;;;;;76.70;42.50;;;;;;;6.76;89.66;99449.67;436293;1252;97992;-39
2023/04/10 05:52:07;;;;;;;88.40;47.90;;;;;;;6.91;90.09;99464.17;436269;1252;108306;-41
2023/04/10 06:02:15;;;;;;;79.50;44.50;;;;;;;6.95;90.39;99468.09;436245;1253;99221;-41
2023/04/10 06:12:22;;;;;;;92.80;47.50;;;;;;;7.00;90.42;99466.52;436505;1251;108017;-40
2023/04/10 06:22:31;;;;;;;91.30;48.70;;;;;;;7.02;90.54;99457.36;436369;1253;99246;-40
2023/04/10 06:32:39;;;;;;;84.50;46.50;;;;;;;7.08;90.91;99462.06;436333;1251;112227;-40
2023/04/10 06:42:46;;;;;;;96.10;50.30;;;;;;;7.21;91.06;99459.65;436421;1251;107506;-41
2023/04/10 06:52:55;;;;;;;90.70;50.00;;;;;;;7.37;91.57;99454.30;436158;1254;99211;-41
2023/04/10 07:03:02;;;;;;;101.80;52.10;;;;;;;7.58;92.31;99453.84;436318;1253;107637;-41
2023/04/10 07:13:10;;;;;;;96.70;50.70;;;;;;;7.88;92.41;99458.15;436302;1253;99242;-41
2023/04/10 07:23:18;;;;;;;95.60;48.60;;;;;;;8.02;92.66;99470.39;436178;1248;111206;-40
2023/04/10 07:33:25;;;;;;;89.80;46.60;;;;;;;8.12;92.66;99468.14;436315;1253;108620;-40
2023/04/10 07:43:34;;;;;;;81.90;45.50;;;;;;;8.35;92.63;99461.14;436353;1253;99224;-41
2023/04/10 07:53:40;;;;;;;75.40;38.30;;;;;;;8.55;92.71;99453.96;436325;1261;107717;-40
2023/04/10 08:03:48;;;;;;;64.60;37.20;;;;;;;8.65;92.88;99443.28;436525;1247;98554;-40
2023/04/10 08:13:57;;;;;;;66.20;37.20;;;;;;;8.82;93.11;99441.45;436262;1248;114202;-40
2023/04/10 08:24:06;;;;;;;69.80;37.70;;;;;;;9.22;93.27;99430.41;436300;1261;107930;-39
2023/04/10 08:34:13;;;;;;;63.20;34.60;;;;;;;9.54;93.39;99429.49;436431;1248;98875;-41
2023/04/10 08:44:18;;;;;;;60.30;34.40;;;;;;;10.03;93.20;99435.02;436385;1247;108085;-40
2023/04/10 08:54:24;;;;;;;62.40;36.60;;;;;;;10.36;92.65;99438.38;436274;1253;99308;-41
2023/04/10 09:04:31;;;;;;;67.40;36.20;;;;;;;10.31;92.30;99447.14;436483;1261;111081;-42
2023/04/10 09:14:40;;;;;;;53.30;30.40;;;;;;;10.34;91.82;99448.80;436346;1254;108307;-40
2023/04/10 09:24:47;;;;;;;53.00;28.30;;;;;;;10.29;91.52;99445.73;436362;1261;99224;-41
2023/04/10 09:34:52;;;;;;;58.20;32.00;;;;;;;10.42;91.36;99437.56;436461;1254;108750;-39
2023/04/10 09:45:00;;;;;;;59.60;32.00;;;;;;;10.61;91.26;99434.11;436582;1252;99737;-41
2023/04/10 09:55:17;;;;;;;65.00;33.00;;;;;;;10.95;91.19;99428.27;436499;1251;111206;-41
2023/04/10 10:15:30;;;;;;;48.40;30.30;;;;;;;11.74;90.28;99407.66;436379;1251;97970;-41
2023/04/10 10:25:36;;;;;;;48.60;31.40;;;;;;;12.00;89.64;99397.20;436465;1254;108823;-41
2023/04/10 10:35:44;;;;;;;59.60;35.20;;;;;;;12.14;89.35;99390.77;436533;1254;99320;-41
2023/04/10 10:45:49;;;;;;;59.20;33.50;;;;;;;12.16;88.84;99379.48;436513;1248;112759;-41
2023/04/10 10:55:56;;;;;;;90.70;44.70;;;;;;;12.44;88.24;99374.73;436438;1247;107120;-41
2023/04/10 11:06:05;;;;;;;50.00;31.00;;;;;;;12.81;88.25;99374.41;436212;1254;99247;-40
2023/04/10 11:16:13;;;;;;;45.10;29.50;;;;;;;12.85;87.64;99370.06;436386;1253;109019;-41
2023/04/10 11:36:45;;;;;;;36.10;23.80;;;;;;;13.67;86.60;99335.23;436167;1251;111890;-41
2023/04/10 11:46:53;;;;;;;38.90;24.60;;;;;;;13.93;85.60;99323.56;436379;1251;107154;-41
2023/04/10 11:56:58;;;;;;;34.40;23.70;;;;;;;14.31;83.65;99306.08;436372;1261;99230;-41
2023/04/10 12:17:13;;;;;;;24.20;18.70;;;;;;;14.87;82.37;99274.27;436385;1248;99225;-41
2023/04/10 12:27:22;;;;;;;29.40;18.20;;;;;;;15.04;81.18;99263.30;436486;1254;112094;-41
2023/04/10 12:37:47;;;;;;;19.60;15.90;;;;;;;15.47;80.21;99244.25;436486;1248;108306;-42
2023/04/10 12:47:55;;;;;;;20.80;13.00;;;;;;;15.35;78.65;99235.57;436523;1251;99205;-41
2023/04/10 13:08:25;;;;;;;24.50;14.30;;;;;;;15.71;77.42;99204.55;436377;1251;99274;-40
2023/04/10 13:18:34;;;;;;;20.00;13.70;;;;;;;15.57;75.42;99189.69;436389;1251;111217;-41
2023/04/10 13:28:42;;;;;;;13.10;11.30;;;;;;;15.27;75.13;99177.73;436395;1251;107834;-41
2023/04/10 13:38:49;;;;;;;13.60;11.00;;;;;;;15.26;74.65;99159.45;436370;1254;99229;-40
2023/04/10 13:48:56;;;;;;;14.50;11.90;;;;;;;15.07;73.61;99153.77;436280;1247;107954;-42
2023/04/10 14:09:09;;;;;;;20.70;14.10;;;;;;;14.31;73.04;99140.30;436717;1247;110929;-41
2023/04/10 14:19:15;;;;;;;17.00;14.50;;;;;;;14.25;72.88;99131.87;436539;1253;107566;-41
2023/04/10 14:29:22;;;;;;;18.10;13.40;;;;;;;14.20;71.98;99121.52;436315;1254;98484;-40
2023/04/10 14:39:41;;;;;;;17.50;12.90;;;;;;;14.44;71.63;99111.50;436458;1253;107872;-41
2023/04/10 14:49:48;;;;;;;16.90;11.70;;;;;;;14.55;71.14;99105.96;436517;1247;98480;-41
2023/04/10 14:59:55;;;;;;;17.00;12.00;;;;;;;14.57;70.64;99097.53;436288;1253;111281;-40
2023/04/10 15:10:03;;;;;;;21.30;14.10;;;;;;;14.65;70.42;99094.13;436199;1253;107603;-42
2023/04/10 15:20:12;;;;;;;16.00;12.60;;;;;;;14.74;70.38;99086.66;436329;1253;99191;-41
2023/04/10 15:30:20;;;;;;;17.70;12.60;;;;;;;14.75;70.08;99077.30;436332;1253;107655;-41
2023/04/10 15:40:28;;;;;;;17.90;12.60;;;;;;;14.81;69.39;99058.41;436373;1247;99228;-41
2023/04/10 16:00:41;;;;;;;18.50;12.60;;;;;;;14.88;69.47;99050.58;436354;1248;106063;-41
2023/04/10 16:10:48;;;;;;;13.00;10.20;;;;;;;14.64;69.34;99049.63;436485;1247;98065;-40
2023/04/10 16:20:55;;;;;;;14.90;11.40;;;;;;;14.30;69.20;99045.69;436335;1253;107702;-40
2023/04/10 16:31:03;;;;;;;14.20;10.50;;;;;;;14.09;69.52;99043.14;436406;1247;99263;-41
2023/04/10 16:41:11;;;;;;;17.50;10.50;;;;;;;13.96;69.46;99043.95;436437;1252;111219;-42
2023/04/10 16:51:19;;;;;;;11.50;9.90;;;;;;;13.72;69.34;99044.83;436336;1263;107700;-42
2023/04/10 17:01:27;;;;;;;14.90;11.20;;;;;;;13.41;69.62;99035.77;436520;1253;101506;-41
2023/04/10 17:11:34;;;;;;;12.50;9.50;;;;;;;13.18;69.98;99030.02;436378;1253;107235;-42
2023/04/10 17:21:41;;;;;;;17.70;14.00;;;;;;;13.04;70.56;99026.80;436257;1253;99858;-42
2023/04/10 17:31:48;;;;;;;28.40;21.20;;;;;;;12.85;71.12;99024.98;436453;1253;111306;-41
2023/04/10 17:52:02;;;;;;;25.10;17.90;;;;;;;12.34;71.99;99037.14;436391;1248;99225;-41
2023/04/10 18:02:10;;;;;;;30.10;20.40;;;;;;;11.93;72.29;99037.26;436340;1253;108212;-41
2023/04/10 18:12:17;;;;;;;51.90;27.00;;;;;;;11.61;72.85;99041.73;436301;1252;98498;-40
2023/04/10 18:22:28;;;;;;;17.10;12.30;;;;;;;11.41;73.26;99073.45;436270;1254;111874;-41
2023/04/10 18:32:35;;;;;;;14.10;9.50;;;;;;;11.38;73.71;99066.77;436224;1253;107265;-41
2023/04/10 18:42:43;;;;;;;13.60;9.30;;;;;;;11.27;74.12;99055.12;436293;1247;98478;-41
2023/04/10 18:52:50;;;;;;;17.30;12.80;;;;;;;11.12;74.28;99050.84;436269;1252;108568;-41
2023/04/10 19:02:57;;;;;;;19.60;12.50;;;;;;;10.91;74.33;99041.04;436335;1253;99224;-41
2023/04/10 19:13:05;;;;;;;20.10;11.40;;;;;;;10.76;74.74;99026.77;436520;1252;111223;-41
2023/04/10 19:33:18;;;;;;;30.40;15.50;;;;;;;10.60;75.49;99003.08;436514;1248;97970;-42
2023/04/10 19:43:26;;;;;;;134.80;62.90;;;;;;;10.47;75.66;98995.83;436297;1253;108362;-41
2023/04/10 19:53:33;;;;;;;47.90;26.90;;;;;;;10.23;75.79;98995.62;436341;1250;99359;-41
2023/04/10 20:03:41;;;;;;;22.90;14.40;;;;;;;10.03;75.78;98995.21;436309;1253;111993;-40
2023/04/10 20:13:48;;;;;;;40.00;26.20;;;;;;;9.86;76.24;99001.16;436283;1248;107018;-40
2023/04/10 20:34:02;;;;;;;40.40;24.80;;;;;;;9.75;76.90;98989.73;436376;1251;108064;-41
2023/04/10 20:44:09;;;;;;;41.80;24.20;;;;;;;9.66;77.11;98981.95;436271;1248;99478;-42
2023/04/10 20:54:17;;;;;;;48.00;27.50;;;;;;;9.43;76.99;98968.72;436406;1253;112004;-40
2023/04/10 21:04:25;;;;;;;49.40;25.60;;;;;;;9.16;77.21;98958.33;436344;1252;109384;-41
2023/04/10 21:14:34;;;;;;;47.10;27.30;;;;;;;9.06;77.70;98941.52;436266;1253;99215;-41
2023/04/10 21:24:41;;;;;;;52.90;30.90;;;;;;;8.85;77.90;98938.73;436494;1261;106901;-40
2023/04/10 21:34:49;;;;;;;47.80;29.00;;;;;;;8.47;77.79;98931.39;436269;1248;99308;-41
2023/04/10 21:44:56;;;;;;;47.80;29.40;;;;;;;8.08;77.89;98922.52;436310;1248;111828;-41
2023/04/10 21:55:03;;;;;;;54.20;32.10;;;;;;;7.82;78.02;98907.91;436212;1253;109208;-41
2023/04/10 22:05:12;;;;;;;47.80;29.30;;;;;;;7.66;78.34;98901.17;436297;1253;99308;-40
2023/04/10 22:15:20;;;;;;;49.40;31.80;;;;;;;7.67;78.88;98885.55;436240;1253;107520;-40
2023/04/10 22:25:27;;;;;;;57.50;37.20;;;;;;;7.55;78.88;98873.09;436328;1247;98914;-41
2023/04/10 22:35:34;;;;;;;70.30;39.40;;;;;;;7.06;78.65;98863.85;436441;1253;111893;-42
2023/04/10 22:45:41;;;;;;;65.40;39.70;;;;;;;6.68;78.98;98846.58;436374;1247;108392;-41
2023/04/10 22:55:48;;;;;;;71.00;42.80;;;;;;;6.53;79.11;98834.25;436421;1253;99217;-40
2023/04/10 23:05:55;;;;;;;84.30;50.30;;;;;;;6.37;79.58;98828.06;436258;1253;107261;-41
2023/04/10 23:16:02;;;;;;;65.90;39.50;;;;;;;6.34;79.89;98815.31;436219;1247;97984;-42
2023/04/10 23:36:17;;;;;;;77.80;47.40;;;;;;;6.38;80.42;98793.40;436431;1247;107727;-41
2023/04/10 23:46:24;;;;;;;87.60;54.50;;;;;;;6.33;81.06;98773.71;436335;1247;99228;-41
2023/04/10 23:56:31;;;;;;;86.30;54.00;;;;;;;6.13;80.65;98753.63;436342;1253;108320;-40
